Time;durP1;ratioP1;P1;durP2;ratioP2;P2;SDS_P1;SDS_P2;PMS_P1;PMS_P2;Temp;Humidity;BMP_temperature;BMP_pressure;BME280_temperature;BME280_humidity;BME280_pressure;Samples;Min_cycle;Max_cycle;Signal;HPM_P1;HPM_P2
2023/10/26 00:01:55;;;;;;;18.00;9.93;;;13.90;82.40;;;;;;4919102;29;20052;-64
2023/10/26 00:04:21;;;;;;;16.30;9.32;;;13.90;82.40;;;;;;4919229;29;20139;-64
2023/10/26 00:06:47;;;;;;;18.75;10.07;;;13.90;82.40;;;;;;4919496;29;20054;-64
2023/10/26 00:09:13;;;;;;;15.43;9.63;;;13.90;82.50;;;;;;4918883;29;20334;-64
2023/10/26 00:11:38;;;;;;;18.83;10.52;;;13.90;82.50;;;;;;4918868;29;20115;-64
2023/10/26 00:14:04;;;;;;;18.95;10.45;;;14.00;82.50;;;;;;4919411;29;20095;-64
2023/10/26 00:16:31;;;;;;;21.48;11.32;;;14.00;82.60;;;;;;4919396;29;20024;-64
2023/10/26 00:18:57;;;;;;;15.52;8.65;;;14.00;82.50;;;;;;4918845;29;20034;-64
2023/10/26 00:21:22;;;;;;;16.60;9.70;;;14.00;82.40;;;;;;4918811;29;20099;-64
2023/10/26 00:23:48;;;;;;;16.10;9.38;;;14.10;82.50;;;;;;4919114;29;20032;-64
2023/10/26 00:26:14;;;;;;;19.10;10.48;;;14.10;82.50;;;;;;4922719;29;20021;-64
2023/10/26 00:28:40;;;;;;;17.40;9.45;;;14.10;82.50;;;;;;4922481;29;20035;-64
2023/10/26 00:31:06;;;;;;;17.63;9.63;;;14.10;82.50;;;;;;4922382;29;20051;-64
2023/10/26 00:33:32;;;;;;;19.50;10.00;;;14.10;82.50;;;;;;4922367;29;20450;-64
2023/10/26 00:35:58;;;;;;;16.85;9.55;;;14.10;82.50;;;;;;4922853;29;20036;-64
2023/10/26 00:38:24;;;;;;;16.20;8.77;;;14.10;82.50;;;;;;4937191;29;20028;-65
2023/10/26 00:40:50;;;;;;;15.63;8.07;;;14.10;82.50;;;;;;4922459;29;20389;-64
2023/10/26 00:43:21;;;;;;;15.98;9.18;;;14.10;82.60;;;;;;4922527;29;20450;-65
2023/10/26 00:45:50;;;;;;;13.63;7.82;;;14.10;82.60;;;;;;4922450;29;20032;-65
2023/10/26 00:48:16;;;;;;;14.27;8.57;;;14.20;82.50;;;;;;4921162;29;20020;-64
2023/10/26 00:50:42;;;;;;;16.27;8.50;;;14.20;82.50;;;;;;4921936;29;20141;-64
2023/10/26 00:53:10;;;;;;;14.82;8.40;;;14.20;82.60;;;;;;4921095;29;20084;-64
2023/10/26 00:55:38;;;;;;;13.27;7.90;;;14.20;82.50;;;;;;4921123;29;20028;-65
2023/10/26 00:58:04;;;;;;;15.50;7.85;;;14.20;82.60;;;;;;4921351;29;20031;-64
2023/10/26 01:00:31;;;;;;;15.43;8.50;;;14.20;82.50;;;;;;4922186;29;20024;-64
2023/10/26 01:02:56;;;;;;;13.05;7.70;;;14.20;82.50;;;;;;4921763;29;20063;-65
2023/10/26 01:05:22;;;;;;;15.70;7.90;;;14.20;82.50;;;;;;4921859;29;20349;-65
2023/10/26 01:07:49;;;;;;;12.90;8.15;;;14.20;82.50;;;;;;4921799;29;20047;-66
2023/10/26 01:10:14;;;;;;;12.70;7.43;;;14.20;82.50;;;;;;4921686;29;20075;-67
2023/10/26 01:12:40;;;;;;;14.38;7.20;;;14.20;82.40;;;;;;4921668;29;20037;-65
2023/10/26 01:15:07;;;;;;;12.93;6.93;;;14.20;82.40;;;;;;4921926;29;20331;-64
2023/10/26 01:17:36;;;;;;;14.15;7.97;;;14.10;82.40;;;;;;4921858;29;20062;-64
2023/10/26 01:20:04;;;;;;;13.52;7.30;;;14.10;82.40;;;;;;4921820;29;20111;-64
2023/10/26 01:22:31;;;;;;;12.55;7.47;;;14.10;82.50;;;;;;4936314;29;20032;-64
2023/10/26 01:24:57;;;;;;;13.27;7.45;;;14.10;82.50;;;;;;4921764;29;20080;-64
2023/10/26 01:27:23;;;;;;;13.30;7.20;;;14.10;82.50;;;;;;4921450;29;20028;-64
2023/10/26 01:29:49;;;;;;;13.57;7.18;;;14.10;82.50;;;;;;4921383;29;20359;-65
2023/10/26 01:32:15;;;;;;;12.75;6.72;;;14.10;82.60;;;;;;4921319;29;20016;-64
2023/10/26 01:34:41;;;;;;;13.35;6.63;;;14.10;82.60;;;;;;4921583;29;20020;-64
2023/10/26 01:37:07;;;;;;;11.65;6.35;;;14.10;82.60;;;;;;4920700;29;20024;-64
2023/10/26 01:39:33;;;;;;;12.65;6.50;;;14.10;82.60;;;;;;4921282;29;20380;-65
2023/10/26 01:41:59;;;;;;;14.52;6.53;;;14.20;82.70;;;;;;4921255;29;20028;-64
2023/10/26 01:44:25;;;;;;;11.00;5.93;;;14.20;82.70;;;;;;4920574;29;20345;-64
2023/10/26 01:46:51;;;;;;;11.98;6.60;;;14.20;82.60;;;;;;4921136;29;20043;-64
2023/10/26 01:49:17;;;;;;;10.65;6.45;;;14.20;82.60;;;;;;4921271;29;20020;-64
2023/10/26 01:51:43;;;;;;;9.05;5.97;;;14.10;82.60;;;;;;4921002;29;20024;-65
2023/10/26 01:54:09;;;;;;;11.40;5.97;;;14.20;82.60;;;;;;4921541;29;20035;-64
2023/10/26 01:56:35;;;;;;;14.10;6.70;;;14.10;82.60;;;;;;4920973;29;20040;-64
2023/10/26 01:59:01;;;;;;;12.02;6.25;;;14.20;82.50;;;;;;4920886;29;20468;-64
2023/10/26 02:01:27;;;;;;;9.18;5.55;;;14.20;82.50;;;;;;4920603;29;20122;-64
2023/10/26 02:03:53;;;;;;;9.52;5.57;;;14.10;82.50;;;;;;4921088;29;20035;-64
2023/10/26 02:06:19;;;;;;;10.77;5.97;;;14.20;82.50;;;;;;4920768;29;20056;-65
2023/10/26 02:08:44;;;;;;;8.90;4.57;;;14.20;82.40;;;;;;4921225;29;20340;-64
2023/10/26 02:11:10;;;;;;;13.18;5.70;;;14.20;82.30;;;;;;4920602;29;20036;-64
2023/10/26 02:13:36;;;;;;;10.45;5.18;;;14.20;82.30;;;;;;4920896;29;20024;-64
2023/10/26 02:16:03;;;;;;;12.73;5.32;;;14.20;82.20;;;;;;4920592;29;20035;-64
2023/10/26 02:18:30;;;;;;;10.13;5.65;;;14.20;82.20;;;;;;4920532;29;20071;-65
2023/10/26 02:21:00;;;;;;;8.77;4.95;;;14.20;82.10;;;;;;4920570;29;20112;-64
2023/10/26 02:23:29;;;;;;;9.90;5.10;;;14.20;82.10;;;;;;4920406;29;20028;-64
2023/10/26 02:25:56;;;;;;;10.38;5.38;;;14.10;82.00;;;;;;4920427;29;20032;-65
2023/10/26 02:30:47;;;;;;;8.38;5.10;;;14.10;81.90;;;;;;4920938;29;20028;-64
2023/10/26 02:33:13;;;;;;;7.90;4.50;;;14.00;81.90;;;;;;4920275;29;20027;-65
2023/10/26 02:35:39;;;;;;;9.70;5.45;;;14.00;82.00;;;;;;4920766;29;20047;-64
2023/10/26 02:38:06;;;;;;;8.18;4.85;;;14.00;81.90;;;;;;4920117;29;20043;-64
2023/10/26 02:40:35;;;;;;;12.20;5.22;;;14.00;81.90;;;;;;4920058;29;20056;-64
2023/10/26 02:43:01;;;;;;;9.05;5.05;;;14.00;82.00;;;;;;4920345;29;20028;-64
2023/10/26 02:45:27;;;;;;;9.43;4.55;;;13.90;81.90;;;;;;4920079;29;20031;-64
2023/10/26 02:47:53;;;;;;;8.68;4.80;;;13.90;81.90;;;;;;4919930;29;20054;-67
2023/10/26 02:50:19;;;;;;;8.10;4.35;;;13.90;81.90;;;;;;4920165;29;20036;-65
2023/10/26 02:52:45;;;;;;;8.20;4.88;;;13.90;81.90;;;;;;4920105;29;20032;-65
2023/10/26 02:55:11;;;;;;;9.25;4.93;;;13.90;81.90;;;;;;4920366;29;20422;-65
2023/10/26 02:57:37;;;;;;;9.82;4.85;;;13.90;81.90;;;;;;4919840;29;20028;-64
2023/10/26 03:00:05;;;;;;;10.57;5.00;;;13.80;81.90;;;;;;4920305;29;20103;-64
2023/10/26 03:02:31;;;;;;;10.15;5.25;;;13.80;82.00;;;;;;4919550;29;20064;-64
2023/10/26 03:04:57;;;;;;;8.45;4.93;;;13.80;81.80;;;;;;4919970;29;20032;-65
2023/10/26 03:07:23;;;;;;;10.20;4.90;;;13.70;81.90;;;;;;4919599;29;20410;-65
2023/10/26 03:09:50;;;;;;;10.00;5.03;;;13.60;81.90;;;;;;4919575;29;20032;-65
2023/10/26 03:12:17;;;;;;;10.57;5.22;;;13.60;82.00;;;;;;4919611;29;20032;-64
2023/10/26 03:14:43;;;;;;;10.25;5.13;;;13.60;82.10;;;;;;4919814;29;20035;-64
2023/10/26 03:17:09;;;;;;;9.90;5.70;;;13.60;82.10;;;;;;4920031;29;20024;-64
2023/10/26 03:19:35;;;;;;;12.95;5.82;;;13.60;82.10;;;;;;4919545;29;20060;-64
2023/10/26 03:22:01;;;;;;;10.85;5.10;;;13.60;82.20;;;;;;4934281;29;20032;-65
2023/10/26 03:24:27;;;;;;;10.85;5.55;;;13.60;82.20;;;;;;4919447;29;20439;-65
2023/10/26 03:26:53;;;;;;;12.27;5.60;;;13.60;82.20;;;;;;4919921;29;20060;-66
2023/10/26 03:29:21;;;;;;;11.75;5.82;;;13.60;82.20;;;;;;4919352;29;20071;-65
2023/10/26 03:31:47;;;;;;;8.82;5.30;;;13.60;82.10;;;;;;4919522;29;20111;-64
2023/10/26 03:34:13;;;;;;;10.30;5.50;;;13.60;82.20;;;;;;4919330;29;20124;-66
2023/10/26 03:36:39;;;;;;;13.00;6.18;;;13.60;82.10;;;;;;4919600;29;20028;-66
2023/10/26 03:39:05;;;;;;;13.60;6.30;;;13.60;82.00;;;;;;4919194;29;20362;-66
2023/10/26 03:41:31;;;;;;;11.55;6.32;;;13.60;82.00;;;;;;4919209;29;20024;-64
2023/10/26 03:43:57;;;;;;;14.05;6.53;;;13.50;82.00;;;;;;4919253;29;20032;-65
2023/10/26 03:46:23;;;;;;;10.95;5.93;;;13.50;82.00;;;;;;4919186;29;20039;-66
2023/10/26 03:48:50;;;;;;;12.70;6.40;;;13.40;82.00;;;;;;4919709;29;20059;-66
2023/10/26 03:51:16;;;;;;;12.63;5.75;;;13.40;82.00;;;;;;4919341;29;20114;-66
2023/10/26 03:53:43;;;;;;;10.77;6.05;;;13.40;81.90;;;;;;4919146;29;20079;-66
2023/10/26 03:56:09;;;;;;;10.57;5.57;;;13.40;82.00;;;;;;4919101;29;20036;-66
2023/10/26 03:58:35;;;;;;;10.93;6.15;;;13.40;82.00;;;;;;4919566;29;20375;-66
2023/10/26 04:01:00;;;;;;;12.60;5.78;;;13.40;82.00;;;;;;4922244;29;20025;-66
2023/10/26 04:03:27;;;;;;;11.45;5.55;;;13.30;82.00;;;;;;4922790;29;20063;-65
2023/10/26 04:05:53;;;;;;;12.00;5.55;;;13.30;82.00;;;;;;4922343;29;20028;-65
2023/10/26 04:08:19;;;;;;;12.35;6.15;;;13.30;81.90;;;;;;4923149;29;20339;-64
2023/10/26 04:10:45;;;;;;;10.45;5.80;;;13.20;82.00;;;;;;4922689;29;20113;-65
2023/10/26 04:13:11;;;;;;;14.55;6.03;;;13.20;81.90;;;;;;4922814;29;20461;-66
2023/10/26 04:15:37;;;;;;;10.80;5.65;;;13.20;81.90;;;;;;4922759;29;20024;-64
2023/10/26 04:18:06;;;;;;;12.38;5.95;;;13.20;82.00;;;;;;4922697;29;20079;-66
2023/10/26 04:20:32;;;;;;;12.27;6.05;;;13.10;82.00;;;;;;4922918;29;20103;-65
2023/10/26 04:22:58;;;;;;;10.30;5.50;;;13.10;82.10;;;;;;4937530;29;20119;-64
2023/10/26 04:25:27;;;;;;;12.68;5.82;;;13.10;82.10;;;;;;4922581;29;20102;-67
2023/10/26 04:27:55;;;;;;;14.07;6.90;;;13.10;82.10;;;;;;4922474;29;20035;-66
2023/10/26 04:30:22;;;;;;;15.80;7.53;;;13.20;82.00;;;;;;4922340;29;20476;-67
2023/10/26 04:32:48;;;;;;;14.95;7.10;;;13.20;82.00;;;;;;4921410;29;20064;-64
2023/10/26 04:35:14;;;;;;;13.23;6.93;;;13.10;81.90;;;;;;4922382;29;20031;-66
2023/10/26 04:37:40;;;;;;;15.75;6.22;;;13.20;81.90;;;;;;4937233;29;20079;-65
2023/10/26 04:40:07;;;;;;;11.30;6.65;;;13.10;81.90;;;;;;4922822;29;20103;-64
2023/10/26 04:42:33;;;;;;;13.90;6.72;;;13.10;82.00;;;;;;4921309;29;20036;-66
2023/10/26 04:44:59;;;;;;;14.27;7.28;;;13.10;82.00;;;;;;4922505;29;20047;-66
2023/10/26 04:47:25;;;;;;;12.55;6.63;;;13.00;82.00;;;;;;4922450;29;20066;-66
2023/10/26 04:49:51;;;;;;;15.00;6.88;;;13.10;82.00;;;;;;4922019;29;20453;-64
2023/10/26 04:52:20;;;;;;;14.30;7.03;;;13.00;82.00;;;;;;4922549;29;20028;-65
2023/10/26 04:54:46;;;;;;;13.25;6.82;;;13.00;81.90;;;;;;4921999;29;20025;-65
2023/10/26 04:57:12;;;;;;;13.10;6.75;;;13.00;81.90;;;;;;4922034;29;20497;-65
2023/10/26 04:59:38;;;;;;;12.55;7.10;;;13.00;82.00;;;;;;4922230;29;20107;-66
2023/10/26 05:02:07;;;;;;;13.32;7.43;;;13.00;81.90;;;;;;4936570;29;20056;-66
2023/10/26 05:04:36;;;;;;;11.93;6.53;;;13.00;81.90;;;;;;4922408;29;20024;-66
2023/10/26 05:07:04;;;;;;;15.90;7.00;;;13.00;82.00;;;;;;4921778;29;20096;-66
2023/10/26 05:09:30;;;;;;;12.13;6.45;;;13.00;81.90;;;;;;4922278;29;20111;-66
2023/10/26 05:11:56;;;;;;;13.93;6.53;;;12.90;81.90;;;;;;4920372;29;20505;-66
2023/10/26 05:14:22;;;;;;;14.80;7.35;;;13.00;81.90;;;;;;4922226;29;20112;-65
2023/10/26 05:16:49;;;;;;;13.90;6.82;;;12.90;82.00;;;;;;4921928;29;20028;-66
2023/10/26 05:19:15;;;;;;;13.85;6.75;;;12.90;82.00;;;;;;4921816;29;20084;-67
2023/10/26 05:21:41;;;;;;;15.55;6.85;;;12.90;82.00;;;;;;4936403;29;20032;-64
2023/10/26 05:24:07;;;;;;;14.32;7.45;;;12.90;82.10;;;;;;4922126;29;20039;-66
2023/10/26 05:26:33;;;;;;;13.60;7.30;;;12.90;82.10;;;;;;4922057;29;20457;-65
2023/10/26 05:29:03;;;;;;;14.10;7.22;;;12.90;82.10;;;;;;4921436;29;20481;-66
2023/10/26 05:31:29;;;;;;;13.13;7.47;;;12.90;82.10;;;;;;4921297;29;20035;-65
2023/10/26 05:33:55;;;;;;;14.32;7.20;;;12.90;82.20;;;;;;4921368;29;20031;-64
2023/10/26 05:36:21;;;;;;;19.23;11.20;;;12.90;82.20;;;;;;4921345;29;20107;-65
2023/10/26 05:38:47;;;;;;;17.38;9.10;;;12.90;82.20;;;;;;4921261;29;20111;-65
2023/10/26 05:41:13;;;;;;;12.38;7.60;;;12.90;82.20;;;;;;4920497;29;20024;-65
2023/10/26 05:43:39;;;;;;;14.20;7.03;;;12.90;82.20;;;;;;4936086;29;20035;-65
2023/10/26 05:46:05;;;;;;;15.40;7.28;;;12.90;82.20;;;;;;4921684;29;20024;-66
2023/10/26 05:48:32;;;;;;;16.02;7.25;;;12.90;82.20;;;;;;4921406;29;20043;-66
2023/10/26 05:50:59;;;;;;;16.20;8.05;;;12.90;82.20;;;;;;4920934;29;20056;-65
2023/10/26 05:53:25;;;;;;;15.48;7.50;;;12.90;82.20;;;;;;4921165;29;20032;-67
2023/10/26 05:55:58;;;;;;;16.95;7.35;;;12.90;82.20;;;;;;4935550;29;20327;-64
2023/10/26 05:58:25;;;;;;;17.10;7.97;;;12.90;82.20;;;;;;4921236;29;20442;-65
2023/10/26 06:00:51;;;;;;;17.05;8.73;;;13.00;82.20;;;;;;4921082;29;20043;-66
2023/10/26 06:03:17;;;;;;;17.23;9.07;;;13.00;82.20;;;;;;4919730;29;20052;-65
2023/10/26 06:05:43;;;;;;;15.60;8.70;;;13.00;82.30;;;;;;4920832;29;20028;-64
2023/10/26 06:08:11;;;;;;;14.98;8.13;;;13.00;82.30;;;;;;4920752;29;20366;-67
2023/10/26 06:10:37;;;;;;;14.77;7.53;;;13.10;82.40;;;;;;4920587;29;20027;-66
2023/10/26 06:13:03;;;;;;;17.55;7.80;;;13.10;82.50;;;;;;4920616;29;20493;-65
2023/10/26 06:15:29;;;;;;;17.17;8.02;;;13.10;82.40;;;;;;4921187;29;20028;-65
2023/10/26 06:17:55;;;;;;;15.43;8.23;;;13.20;82.40;;;;;;4920860;29;20036;-65
2023/10/26 06:20:27;;;;;;;16.10;8.52;;;13.20;82.50;;;;;;4920514;29;20024;-65
2023/10/26 06:22:56;;;;;;;14.98;7.90;;;13.30;82.60;;;;;;4920034;29;20032;-66
2023/10/26 06:25:23;;;;;;;17.58;9.05;;;13.40;82.60;;;;;;4935311;29;20035;-66
2023/10/26 06:27:49;;;;;;;14.88;7.78;;;13.40;82.50;;;;;;4920649;29;20051;-66
2023/10/26 06:32:47;;;;;;;17.42;8.15;;;13.50;82.40;;;;;;4920761;29;20055;-66
2023/10/26 06:35:12;;;;;;;15.68;7.72;;;13.60;82.50;;;;;;4920326;29;20462;-66
2023/10/26 06:37:38;;;;;;;14.68;7.50;;;13.70;82.50;;;;;;4919379;29;20035;-66
2023/10/26 06:40:08;;;;;;;16.33;7.90;;;13.70;82.50;;;;;;4920708;29;20024;-66
2023/10/26 06:42:34;;;;;;;15.15;7.95;;;13.70;82.40;;;;;;4919978;29;20028;-66
2023/10/26 06:45:00;;;;;;;18.55;7.88;;;13.80;82.40;;;;;;4920573;29;20103;-67
2023/10/26 06:47:26;;;;;;;14.07;7.45;;;13.80;82.40;;;;;;4919774;29;20036;-67
2023/10/26 06:50:01;;;;;;;16.05;8.07;;;13.90;82.40;;;;;;4919970;29;20505;-67
2023/10/26 06:52:27;;;;;;;15.98;7.78;;;13.90;82.30;;;;;;4919632;29;20454;-68
2023/10/26 06:54:53;;;;;;;16.30;7.90;;;13.90;82.30;;;;;;4919724;29;20024;-68
2023/10/26 06:57:19;;;;;;;15.07;7.72;;;13.90;82.40;;;;;;4919878;29;20032;-67
2023/10/26 06:59:46;;;;;;;12.75;6.38;;;13.90;82.40;;;;;;4920084;29;20331;-67
2023/10/26 07:02:12;;;;;;;14.20;7.22;;;13.90;82.30;;;;;;4934377;29;20060;-67
2023/10/26 07:04:38;;;;;;;12.98;7.00;;;13.90;82.30;;;;;;4920003;29;20028;-67
2023/10/26 07:07:04;;;;;;;13.38;6.60;;;14.00;82.30;;;;;;4919716;29;20051;-67
2023/10/26 07:09:30;;;;;;;14.70;7.05;;;14.00;82.20;;;;;;4919885;29;20054;-67
2023/10/26 07:12:05;;;;;;;13.07;6.50;;;14.10;82.30;;;;;;4919884;29;20433;-68
2023/10/26 07:14:31;;;;;;;14.70;7.13;;;14.10;82.20;;;;;;4919577;29;20038;-68
2023/10/26 07:16:57;;;;;;;16.25;8.50;;;14.10;82.30;;;;;;5190565;23;20083;-71
2023/10/26 07:19:23;;;;;;;14.68;7.47;;;14.20;82.40;;;;;;4938753;29;20032;-71
2023/10/26 07:21:49;;;;;;;15.00;7.05;;;14.20;82.40;;;;;;4938474;29;20032;-71
2023/10/26 07:24:15;;;;;;;14.73;6.55;;;14.30;82.40;;;;;;4938452;29;20031;-71
2023/10/26 07:26:41;;;;;;;14.25;6.95;;;14.30;82.30;;;;;;5201238;23;20068;-71
2023/10/26 07:29:07;;;;;;;14.45;7.40;;;14.40;82.30;;;;;;4899597;29;20414;-71
2023/10/26 07:31:33;;;;;;;17.35;7.38;;;14.40;82.30;;;;;;4900487;29;20033;-71
2023/10/26 07:33:59;;;;;;;13.77;7.55;;;14.40;82.30;;;;;;4899851;29;20028;-71
2023/10/26 07:36:30;;;;;;;18.48;8.13;;;14.60;82.40;;;;;;4890524;29;20465;-71
2023/10/26 07:38:56;;;;;;;12.70;7.30;;;14.60;82.50;;;;;;4881694;29;20025;-71
2023/10/26 07:41:25;;;;;;;17.42;8.10;;;14.70;82.40;;;;;;4896596;29;20036;-71
2023/10/26 07:43:51;;;;;;;16.02;7.47;;;14.80;82.30;;;;;;4896147;29;20055;-71
2023/10/26 07:46:17;;;;;;;14.48;7.40;;;14.80;82.10;;;;;;4881843;29;20040;-71
2023/10/26 07:48:43;;;;;;;14.43;7.93;;;14.80;82.00;;;;;;4881828;29;20025;-71
2023/10/26 07:51:10;;;;;;;11.18;6.85;;;14.90;82.00;;;;;;4881483;29;20047;-71
2023/10/26 07:53:36;;;;;;;14.05;6.93;;;14.90;82.00;;;;;;4881801;29;20017;-71
2023/10/26 07:56:02;;;;;;;13.00;6.85;;;14.90;82.00;;;;;;4881706;29;20036;-71
2023/10/26 07:58:49;;;;;;;12.52;6.25;;;14.90;81.90;;;;;;5431676;23;20726;31
2023/10/26 08:01:17;;;;;;;14.43;6.57;;;14.90;81.80;;;;;;4898293;29;20041;-71
2023/10/26 08:03:45;;;;;;;15.32;6.55;;;15.00;81.90;;;;;;4900098;29;20029;-71
2023/10/26 08:06:14;;;;;;;14.85;7.05;;;15.00;81.80;;;;;;4900064;29;20096;-71
2023/10/26 08:08:40;;;;;;;12.30;7.15;;;15.10;81.80;;;;;;4901279;29;20064;-71
2023/10/26 08:11:08;;;;;;;14.40;6.90;;;15.20;81.90;;;;;;4918903;29;20044;-71
2023/10/26 08:13:38;;;;;;;12.30;6.20;;;15.20;81.90;;;;;;4919189;29;20099;-71
2023/10/26 08:16:07;;;;;;;12.05;6.72;;;15.30;81.70;;;;;;4918860;29;20020;-71
2023/10/26 08:18:36;;;;;;;12.23;6.75;;;15.40;81.70;;;;;;4918852;29;20072;-71
2023/10/26 08:21:03;;;;;;;12.15;5.82;;;15.40;81.80;;;;;;4919401;29;20028;-71
2023/10/26 08:23:32;;;;;;;12.43;6.38;;;15.60;81.60;;;;;;4918760;29;20036;-71
2023/10/26 08:26:07;;;;;;;12.55;6.38;;;15.70;81.50;;;;;;4918769;29;20082;-71
2023/10/26 08:28:36;;;;;;;12.13;6.93;;;15.70;81.30;;;;;;4918699;29;20111;-71
2023/10/26 08:31:02;;;;;;;14.15;6.50;;;15.80;81.20;;;;;;4919247;29;20493;-71
2023/10/26 08:33:33;;;;;;;13.05;6.78;;;15.90;81.10;;;;;;4917950;29;20457;-71
2023/10/26 08:35:59;;;;;;;12.40;6.28;;;15.90;80.90;;;;;;4918992;29;20024;-71
2023/10/26 08:38:26;;;;;;;13.40;6.40;;;16.00;80.80;;;;;;4919249;29;20057;-71
2023/10/26 08:40:53;;;;;;;12.43;6.90;;;16.10;80.70;;;;;;4917660;29;20028;-71
2023/10/26 08:43:21;;;;;;;14.13;6.53;;;16.10;80.70;;;;;;4918702;29;20024;-71
2023/10/26 08:45:48;;;;;;;13.20;7.05;;;16.20;80.70;;;;;;4919776;29;20111;-71
2023/10/26 08:48:18;;;;;;;12.75;6.93;;;16.30;80.70;;;;;;4922229;29;20028;-71
2023/10/26 08:53:15;;;;;;;14.45;7.50;;;16.40;80.70;;;;;;5202354;23;20263;-71
2023/10/26 08:55:43;;;;;;;14.18;7.68;;;16.50;80.70;;;;;;4941542;29;20102;-71
2023/10/26 08:58:09;;;;;;;17.55;7.95;;;16.70;80.70;;;;;;4941046;29;20039;-71
2023/10/26 09:00:40;;;;;;;12.27;6.82;;;16.70;80.60;;;;;;4941246;29;20020;-71
2023/10/26 09:03:07;;;;;;;12.90;7.45;;;16.90;80.30;;;;;;4928819;29;20035;-71
2023/10/26 09:05:55;;;;;;;15.18;7.22;;;16.90;79.90;;;;;;4906170;29;20043;-71
2023/10/26 09:08:27;;;;;;;12.30;6.75;;;17.00;79.90;;;;;;4922449;29;20032;-71
2023/10/26 09:10:53;;;;;;;13.93;7.68;;;17.00;79.80;;;;;;4921770;29;20083;-71
2023/10/26 09:13:26;;;;;;;14.98;8.15;;;17.10;79.90;;;;;;4921998;29;20099;-71
2023/10/26 09:15:57;;;;;;;14.18;7.75;;;17.10;79.70;;;;;;4920754;29;20028;-71
2023/10/26 09:18:24;;;;;;;12.65;6.95;;;17.20;79.30;;;;;;4922268;29;20059;-71
2023/10/26 09:21:08;;;;;;;12.52;7.00;;;17.30;79.30;;;;;;4905140;29;20047;-71
2023/10/26 09:23:37;;;;;;;9.02;5.97;;;17.40;79.10;;;;;;4921528;29;20111;-71
2023/10/26 09:26:07;;;;;;;12.57;7.28;;;17.50;78.70;;;;;;4921514;29;20032;-72
2023/10/26 09:28:52;;;;;;;11.73;6.30;;;17.60;78.50;;;;;;4920605;29;20061;-72
2023/10/26 09:31:18;;;;;;;14.85;7.55;;;17.60;78.30;;;;;;4921655;29;20028;-71
2023/10/26 09:33:45;;;;;;;11.45;6.57;;;17.70;78.20;;;;;;4921347;29;20115;-71
2023/10/26 09:36:13;;;;;;;12.85;6.95;;;17.70;78.30;;;;;;4921598;29;20107;-71
2023/10/26 09:38:39;;;;;;;9.57;5.90;;;17.80;78.10;;;;;;5199425;23;20469;-71
2023/10/26 09:41:09;;;;;;;12.63;6.80;;;17.80;78.00;;;;;;4939339;29;20019;-72
2023/10/26 09:43:35;;;;;;;13.13;7.18;;;17.90;77.80;;;;;;4940171;29;20064;-71
2023/10/26 09:46:01;;;;;;;13.77;7.18;;;17.90;77.60;;;;;;4940187;29;20106;-71
2023/10/26 09:48:29;;;;;;;12.20;8.13;;;18.00;77.60;;;;;;4930129;29;20020;-71
2023/10/26 09:51:00;;;;;;;12.70;7.45;;;18.10;77.30;;;;;;4921311;29;20069;-72
2023/10/26 09:56:25;;;;;;;12.45;5.88;;;18.10;76.90;;;;;;5126162;23;20070;-72
2023/10/26 09:58:53;;;;;;;14.88;7.28;;;18.10;76.60;;;;;;4938961;29;20472;-72
2023/10/26 10:01:42;;;;;;;14.63;8.60;;;18.20;76.60;;;;;;4939108;29;20039;-71
2023/10/26 10:04:10;;;;;;;13.95;8.48;;;18.20;76.60;;;;;;4940444;29;20437;-72
2023/10/26 10:09:23;;;;;;;;;;;18.20;76.20;;;;;;5200988;23;20058;-71
2023/10/26 10:12:12;;;;;;;14.93;8.05;;;18.20;75.20;;;;;;4939690;29;20348;-71
2023/10/26 10:14:51;;;;;;;18.35;9.48;;;18.20;75.50;;;;;;4939586;29;20036;-71
2023/10/26 10:17:20;;;;;;;18.65;9.13;;;18.20;75.80;;;;;;4939561;29;20114;-71
2023/10/26 10:19:47;;;;;;;19.90;10.45;;;18.20;75.50;;;;;;4923331;29;20023;-71
2023/10/26 10:22:36;;;;;;;13.60;7.32;;;18.20;75.30;;;;;;4920758;29;20043;-71
2023/10/26 10:25:02;;;;;;;22.55;10.80;;;18.20;75.40;;;;;;4920374;29;20036;-71
2023/10/26 10:27:28;;;;;;;28.13;13.60;;;18.20;75.40;;;;;;4920412;29;20031;-71
2023/10/26 10:29:59;;;;;;;17.95;8.40;;;18.20;75.20;;;;;;4920725;29;20042;-71
2023/10/26 10:32:43;;;;;;;24.00;12.13;;;18.20;75.30;;;;;;4920829;29;20036;-71
2023/10/26 10:35:10;;;;;;;24.83;12.48;;;18.30;75.40;;;;;;4920277;29;20088;-71
2023/10/26 10:37:37;;;;;;;23.48;11.85;;;18.20;75.30;;;;;;4920784;29;20481;-71
2023/10/26 10:40:12;;;;;;;25.48;12.75;;;18.20;74.90;;;;;;4920141;29;20434;-71
2023/10/26 10:42:50;;;;;;;29.30;13.70;;;18.30;75.40;;;;;;4920651;29;20319;-71
2023/10/26 10:45:17;;;;;;;31.75;15.23;;;18.20;75.50;;;;;;4919826;29;20446;-71
2023/10/26 10:47:46;;;;;;;29.27;14.40;;;18.20;74.90;;;;;;4920596;29;20032;-71
2023/10/26 10:50:16;;;;;;;30.30;15.43;;;18.20;75.20;;;;;;4903448;29;20039;-71
2023/10/26 10:52:44;;;;;;;31.10;15.20;;;18.10;75.40;;;;;;4919973;29;20484;-71
2023/10/26 10:55:10;;;;;;;31.45;15.10;;;18.10;75.60;;;;;;4919059;29;20445;-71
2023/10/26 10:57:56;;;;;;;31.85;15.50;;;18.10;75.60;;;;;;4920381;29;20056;-71
2023/10/26 11:00:26;;;;;;;36.92;16.40;;;18.20;75.60;;;;;;4920148;29;20389;-71
2023/10/26 11:02:56;;;;;;;34.78;16.77;;;18.10;75.50;;;;;;4918931;29;20036;-71
2023/10/26 11:05:42;;;;;;;36.05;16.65;;;18.10;75.20;;;;;;4920030;29;20043;-71
2023/10/26 11:08:12;;;;;;;28.42;14.60;;;18.10;75.50;;;;;;4919404;29;20032;-71
2023/10/26 11:10:38;;;;;;;37.20;16.70;;;18.00;75.70;;;;;;4919893;29;20039;-71
2023/10/26 11:13:07;;;;;;;29.92;15.05;;;18.10;75.70;;;;;;4920150;29;20075;-71
2023/10/26 11:15:38;;;;;;;31.67;14.75;;;18.00;75.70;;;;;;4919600;29;20047;-71
2023/10/26 11:18:07;;;;;;;34.15;16.30;;;18.00;75.70;;;;;;4919481;29;20172;-71
2023/10/26 11:20:40;;;;;;;35.60;17.15;;;18.00;75.70;;;;;;4918531;29;20024;-71
2023/10/26 11:23:10;;;;;;;30.83;15.18;;;18.00;75.90;;;;;;4920000;29;20032;-71
2023/10/26 11:25:37;;;;;;;34.88;16.15;;;18.00;75.90;;;;;;4919976;29;20035;-71
2023/10/26 11:28:03;;;;;;;34.97;17.45;;;18.10;75.70;;;;;;4919367;29;20043;-71
2023/10/26 11:30:44;;;;;;;30.77;14.38;;;18.10;75.50;;;;;;4919327;29;20043;-71
2023/10/26 11:33:32;;;;;;;30.52;15.90;;;18.10;75.50;;;;;;4919949;29;20055;-71
2023/10/26 11:36:01;;;;;;;34.90;16.23;;;18.20;75.50;;;;;;4919265;29;20035;-71
2023/10/26 11:38:27;;;;;;;33.92;16.25;;;18.20;75.70;;;;;;4919156;29;20421;-71
2023/10/26 11:40:54;;;;;;;30.05;15.18;;;18.30;75.70;;;;;;4919238;29;20024;-71
2023/10/26 11:43:39;;;;;;;35.08;16.73;;;18.40;75.80;;;;;;4919166;29;20047;-71
2023/10/26 11:46:05;;;;;;;34.15;16.23;;;18.40;75.70;;;;;;4919679;29;20610;-70
2023/10/26 11:48:33;;;;;;;36.42;17.73;;;18.40;75.50;;;;;;4918984;29;20043;-70
2023/10/26 11:50:59;;;;;;;34.03;16.55;;;18.40;75.50;;;;;;4918987;29;20029;-70
2023/10/26 11:53:26;;;;;;;36.45;16.92;;;18.40;75.60;;;;;;4919350;29;20438;-70
2023/10/26 11:55:55;;;;;;;32.17;15.85;;;18.40;75.60;;;;;;5543194;23;20491;-70
2023/10/26 11:58:22;;;;;;;31.02;14.98;;;18.50;75.60;;;;;;4938591;29;20437;-70
2023/10/26 12:00:48;;;;;;;31.80;15.63;;;18.50;75.50;;;;;;4938518;29;20019;-70
2023/10/26 12:03:14;;;;;;;36.22;17.48;;;18.50;75.50;;;;;;4938030;29;20102;-70
2023/10/26 12:05:42;;;;;;;34.28;16.67;;;18.50;75.30;;;;;;4933537;29;20017;-70
2023/10/26 12:08:09;;;;;;;35.17;16.35;;;18.50;75.50;;;;;;4919231;29;20397;-70
2023/10/26 12:10:35;;;;;;;31.02;16.40;;;18.50;75.40;;;;;;4917912;29;20424;-70
2023/10/26 12:13:02;;;;;;;34.10;16.15;;;18.60;75.40;;;;;;4918949;29;20076;-70
2023/10/26 12:15:28;;;;;;;33.40;16.95;;;18.60;75.40;;;;;;4918773;29;20032;-70
2023/10/26 12:17:54;;;;;;;32.65;15.60;;;18.60;75.00;;;;;;4918899;29;20064;-70
2023/10/26 12:20:21;;;;;;;29.13;14.27;;;18.60;75.20;;;;;;4919856;29;20032;-70
2023/10/26 12:22:48;;;;;;;24.83;13.25;;;18.60;75.00;;;;;;4922706;29;20024;-70
2023/10/26 12:25:15;;;;;;;35.13;19.20;;;18.60;75.00;;;;;;4922811;29;20361;-70
2023/10/26 12:27:41;;;;;;;37.28;17.80;;;18.60;74.90;;;;;;4922404;29;20107;-70
2023/10/26 12:30:08;;;;;;;27.77;14.95;;;18.50;75.00;;;;;;4922431;29;20353;-70
2023/10/26 12:32:34;;;;;;;36.67;17.95;;;18.50;75.10;;;;;;4922476;29;20039;-70
2023/10/26 12:35:02;;;;;;;35.88;17.80;;;18.50;75.00;;;;;;4922921;29;20028;-69
2023/10/26 12:37:28;;;;;;;37.47;18.60;;;18.50;75.10;;;;;;4922216;29;20039;-69
2023/10/26 12:40:07;;;;;;;36.75;17.42;;;18.50;74.80;;;;;;4922341;29;20151;-70
2023/10/26 12:42:41;;;;;;;36.50;15.88;;;18.40;75.10;;;;;;4921850;29;20032;-71
2023/10/26 12:45:10;;;;;;;39.42;16.73;;;18.40;74.70;;;;;;4922210;29;20036;-71
2023/10/26 12:47:36;;;;;;;39.88;19.50;;;18.40;75.00;;;;;;4919826;29;20040;-71
2023/10/26 12:50:05;;;;;;;34.33;17.00;;;18.50;75.00;;;;;;4920489;29;20036;-71
2023/10/26 12:52:47;;;;;;;33.90;17.70;;;18.50;75.10;;;;;;4924132;29;20028;-71